Elizabethton, TN

05:52 EST le 23 novembre 2014 (GMT -0500)
Boone | Change Station
CLOSE
Current Station
Aéroport
Location: Boone,
Altitude: 3146 ft
Stations météo à proximité
Avis météorologiques actifs: High Wind Warning

Alt. 3146 ft 36.20 °N, 81.65 °W | Updated 37 minutes ago

Ciel dégagé
Ciel dégagé
46 ° F
Paraît 43 ° F
N
7
Vent Variable Vent de Sud

Aujourd'hui
Haut(e) -- | Bas -- ° F
--% Risque de précip.
Hier
Haut(e) -- | Bas -- ° F
Precip. -- pouce
7:14 AM 5:16 PM
Nouvelle lune, 1% visible
Pression 30.22 pouce
Visibilité 10.0 Miles terrestres
Nuages Nuageux 1300 ft
Nuageux 1800 ft
Refroidissement éolien 43 ° F
Point de rosée 37 ° F
Humidité 69%
Précipitations 0.00 pouce
Profondeur de la couche neigeuse Non disponible.
UV 0 sur 12
Pollen .10 sur 12
Qualité de l'air Non disponible.
Flu Activity Non disponible.
METAR KTNB 231015Z AUTO 18006KT 10SM BKN013 BKN018 08/03 A3022 RMK AO2 T00800026

More Conditions Fewer Conditions

Pression 30.22 pouce
Visibilité 10.0 Miles terrestres
Nuages Nuageux 1300 ft
Nuageux 1800 ft
Refroidissement éolien 43 ° F
Point de rosée 37 ° F
Humidité 69%
Précipitations 0.00 pouce
Profondeur de la couche neigeuse Non disponible.
UV 0 sur 12
Pollen .10 sur 12
Qualité de l'air Non disponible.
Flu Activity Non disponible.
METAR KTNB 231015Z AUTO 18006KT 10SM BKN013 BKN018 08/03 A3022 RMK AO2 T00800026

More Conditions Fewer Conditions

10-Day Weather Forecast

Almanac

Astronomie

Nov. 23, 2014 Lever Coucher
Temps réel
Crépuscule civil
Crépuscule nautique
Crépuscule astronomique
Lune
Durée de lumière visible
Longueur du jour
Tomorrow will be .
, % of the Moon is Illuminated

Extrêmes aujourd'hui

State Highs State Lows

Community

WunderPhotos

Upload Photos

1,773,033 Photos téléchargées !

WunderBlogs® & News

Nearby

Qualité de l'air

  Qualité de l'air Indice de la qualité de l'air Polluant
Not available.

Épaisseur de neige

Station Depth Altitude

Activité sismique

Ville Distance Mag. Time & Date
Minimum magnitude displayed is 2.5.

Températures des eaux côtières

Lieu Température

Stations météo à proximité